sensor_id;sensor_type;location;lat;lon;timestamp;P1;durP1;ratioP1;P2;durP2;ratioP2
58992;SDS011;44782;0.000;0.000;2023-07-09T00:01:30;3.30;;;3.10;;
58992;SDS011;44782;0.000;0.000;2023-07-09T00:03:46;2.80;;;2.60;;
58992;SDS011;44782;0.000;0.000;2023-07-09T00:06:07;3.00;;;2.80;;
58992;SDS011;44782;0.000;0.000;2023-07-09T00:10:45;2.97;;;2.78;;
58992;SDS011;44782;0.000;0.000;2023-07-09T00:13:00;2.95;;;2.75;;
58992;SDS011;44782;0.000;0.000;2023-07-09T00:15:16;3.45;;;3.15;;
58992;SDS011;44782;0.000;0.000;2023-07-09T00:17:33;3.08;;;2.88;;
58992;SDS011;44782;0.000;0.000;2023-07-09T00:19:49;2.92;;;2.72;;
58992;SDS011;44782;0.000;0.000;2023-07-09T00:22:08;3.40;;;3.10;;
58992;SDS011;44782;0.000;0.000;2023-07-09T00:24:31;3.15;;;2.95;;
58992;SDS011;44782;0.000;0.000;2023-07-09T00:26:47;3.20;;;3.00;;
58992;SDS011;44782;0.000;0.000;2023-07-09T00:29:03;3.30;;;3.00;;
58992;SDS011;44782;0.000;0.000;2023-07-09T00:31:19;3.00;;;2.80;;
58992;SDS011;44782;0.000;0.000;2023-07-09T00:33:35;3.20;;;2.92;;
58992;SDS011;44782;0.000;0.000;2023-07-09T00:35:52;3.20;;;3.00;;
58992;SDS011;44782;0.000;0.000;2023-07-09T00:38:12;3.38;;;3.17;;
58992;SDS011;44782;0.000;0.000;2023-07-09T00:40:29;3.00;;;2.80;;
58992;SDS011;44782;0.000;0.000;2023-07-09T00:42:49;3.10;;;2.90;;
58992;SDS011;44782;0.000;0.000;2023-07-09T00:45:15;2.90;;;2.70;;
58992;SDS011;44782;0.000;0.000;2023-07-09T00:50:54;2.70;;;2.50;;
58992;SDS011;44782;0.000;0.000;2023-07-09T00:52:53;2.70;;;2.50;;
58992;SDS011;44782;0.000;0.000;2023-07-09T00:55:12;3.05;;;2.85;;
58992;SDS011;44782;0.000;0.000;2023-07-09T00:57:33;3.00;;;2.80;;
58992;SDS011;44782;0.000;0.000;2023-07-09T00:59:55;3.20;;;2.90;;
58992;SDS011;44782;0.000;0.000;2023-07-09T01:02:15;2.97;;;2.78;;
58992;SDS011;44782;0.000;0.000;2023-07-09T01:04:30;3.40;;;3.10;;
58992;SDS011;44782;0.000;0.000;2023-07-09T01:06:53;2.90;;;2.70;;
58992;SDS011;44782;0.000;0.000;2023-07-09T01:09:10;3.25;;;3.05;;
58992;SDS011;44782;0.000;0.000;2023-07-09T01:11:26;3.17;;;2.97;;
58992;SDS011;44782;0.000;0.000;2023-07-09T01:13:42;2.95;;;2.75;;
58992;SDS011;44782;0.000;0.000;2023-07-09T01:15:59;3.08;;;2.88;;
58992;SDS011;44782;0.000;0.000;2023-07-09T01:18:15;2.80;;;2.60;;
58992;SDS011;44782;0.000;0.000;2023-07-09T01:20:32;3.13;;;2.92;;
58992;SDS011;44782;0.000;0.000;2023-07-09T01:22:48;3.03;;;2.83;;
58992;SDS011;44782;0.000;0.000;2023-07-09T01:25:06;2.85;;;2.65;;
58992;SDS011;44782;0.000;0.000;2023-07-09T01:27:26;3.10;;;2.90;;
58992;SDS011;44782;0.000;0.000;2023-07-09T01:29:45;3.22;;;2.92;;
58992;SDS011;44782;0.000;0.000;2023-07-09T01:32:04;3.28;;;3.08;;
58992;SDS011;44782;0.000;0.000;2023-07-09T01:34:21;3.40;;;3.10;;
58992;SDS011;44782;0.000;0.000;2023-07-09T01:36:37;3.00;;;2.80;;
58992;SDS011;44782;0.000;0.000;2023-07-09T01:38:55;2.70;;;2.50;;
58992;SDS011;44782;0.000;0.000;2023-07-09T01:41:11;2.80;;;2.60;;
58992;SDS011;44782;0.000;0.000;2023-07-09T01:43:29;3.00;;;2.80;;
58992;SDS011;44782;0.000;0.000;2023-07-09T01:45:46;2.88;;;2.67;;
58992;SDS011;44782;0.000;0.000;2023-07-09T01:48:05;3.25;;;3.05;;
58992;SDS011;44782;0.000;0.000;2023-07-09T01:50:29;2.97;;;2.78;;
58992;SDS011;44782;0.000;0.000;2023-07-09T01:52:45;2.80;;;2.60;;
58992;SDS011;44782;0.000;0.000;2023-07-09T01:55:04;3.05;;;2.85;;
58992;SDS011;44782;0.000;0.000;2023-07-09T01:57:22;2.85;;;2.65;;
58992;SDS011;44782;0.000;0.000;2023-07-09T01:59:51;2.60;;;2.40;;
58992;SDS011;44782;0.000;0.000;2023-07-09T02:02:11;2.75;;;2.55;;
58992;SDS011;44782;0.000;0.000;2023-07-09T02:04:35;3.03;;;2.83;;
58992;SDS011;44782;0.000;0.000;2023-07-09T02:06:51;2.80;;;2.60;;
58992;SDS011;44782;0.000;0.000;2023-07-09T02:09:07;2.95;;;2.75;;
58992;SDS011;44782;0.000;0.000;2023-07-09T02:11:22;3.20;;;2.97;;
58992;SDS011;44782;0.000;0.000;2023-07-09T02:13:38;2.90;;;2.70;;
58992;SDS011;44782;0.000;0.000;2023-07-09T02:15:54;3.13;;;2.88;;
58992;SDS011;44782;0.000;0.000;2023-07-09T02:18:11;3.20;;;3.00;;
58992;SDS011;44782;0.000;0.000;2023-07-09T02:20:28;2.97;;;2.78;;
58992;SDS011;44782;0.000;0.000;2023-07-09T02:22:43;3.13;;;2.92;;
58992;SDS011;44782;0.000;0.000;2023-07-09T02:24:59;2.90;;;2.70;;
58992;SDS011;44782;0.000;0.000;2023-07-09T02:27:17;3.00;;;2.80;;
58992;SDS011;44782;0.000;0.000;2023-07-09T02:29:34;2.92;;;2.72;;
58992;SDS011;44782;0.000;0.000;2023-07-09T02:31:50;2.90;;;2.70;;
58992;SDS011;44782;0.000;0.000;2023-07-09T02:34:07;3.10;;;2.90;;
58992;SDS011;44782;0.000;0.000;2023-07-09T02:36:24;3.05;;;2.85;;
58992;SDS011;44782;0.000;0.000;2023-07-09T02:38:40;2.80;;;2.60;;
58992;SDS011;44782;0.000;0.000;2023-07-09T02:40:55;3.00;;;2.80;;
58992;SDS011;44782;0.000;0.000;2023-07-09T02:43:11;3.03;;;2.83;;
58992;SDS011;44782;0.000;0.000;2023-07-09T02:45:27;3.00;;;2.80;;
58992;SDS011;44782;0.000;0.000;2023-07-09T02:47:43;2.95;;;2.75;;
58992;SDS011;44782;0.000;0.000;2023-07-09T02:49:59;2.70;;;2.50;;
58992;SDS011;44782;0.000;0.000;2023-07-09T02:52:14;2.90;;;2.70;;
58992;SDS011;44782;0.000;0.000;2023-07-09T02:54:30;2.80;;;2.60;;
58992;SDS011;44782;0.000;0.000;2023-07-09T02:56:46;3.20;;;2.90;;
58992;SDS011;44782;0.000;0.000;2023-07-09T02:59:02;2.70;;;2.50;;
58992;SDS011;44782;0.000;0.000;2023-07-09T03:01:18;3.17;;;2.97;;
58992;SDS011;44782;0.000;0.000;2023-07-09T03:03:40;3.08;;;2.88;;
58992;SDS011;44782;0.000;0.000;2023-07-09T03:05:55;2.90;;;2.70;;
58992;SDS011;44782;0.000;0.000;2023-07-09T03:08:11;2.90;;;2.70;;
58992;SDS011;44782;0.000;0.000;2023-07-09T03:10:28;2.70;;;2.50;;
58992;SDS011;44782;0.000;0.000;2023-07-09T03:12:44;2.58;;;2.40;;
58992;SDS011;44782;0.000;0.000;2023-07-09T03:14:59;3.22;;;2.92;;
58992;SDS011;44782;0.000;0.000;2023-07-09T03:17:15;2.80;;;2.60;;
58992;SDS011;44782;0.000;0.000;2023-07-09T03:19:30;3.05;;;2.85;;
58992;SDS011;44782;0.000;0.000;2023-07-09T03:21:46;2.75;;;2.53;;
58992;SDS011;44782;0.000;0.000;2023-07-09T03:24:02;3.17;;;2.88;;
58992;SDS011;44782;0.000;0.000;2023-07-09T03:26:18;2.67;;;2.47;;
58992;SDS011;44782;0.000;0.000;2023-07-09T03:28:34;3.00;;;2.80;;
58992;SDS011;44782;0.000;0.000;2023-07-09T03:30:52;3.05;;;2.85;;
58992;SDS011;44782;0.000;0.000;2023-07-09T03:33:09;3.00;;;2.80;;
58992;SDS011;44782;0.000;0.000;2023-07-09T03:35:26;2.78;;;2.63;;
58992;SDS011;44782;0.000;0.000;2023-07-09T03:37:42;2.88;;;2.67;;
58992;SDS011;44782;0.000;0.000;2023-07-09T03:39:57;2.85;;;2.65;;
58992;SDS011;44782;0.000;0.000;2023-07-09T03:42:13;2.78;;;2.58;;
58992;SDS011;44782;0.000;0.000;2023-07-09T03:44:29;2.75;;;2.55;;
58992;SDS011;44782;0.000;0.000;2023-07-09T03:46:45;2.78;;;2.58;;
58992;SDS011;44782;0.000;0.000;2023-07-09T03:49:00;3.00;;;2.70;;
58992;SDS011;44782;0.000;0.000;2023-07-09T03:51:16;2.80;;;2.60;;
58992;SDS011;44782;0.000;0.000;2023-07-09T03:53:32;3.15;;;2.90;;
58992;SDS011;44782;0.000;0.000;2023-07-09T03:55:51;3.20;;;3.00;;
58992;SDS011;44782;0.000;0.000;2023-07-09T03:58:09;2.90;;;2.70;;
58992;SDS011;44782;0.000;0.000;2023-07-09T04:00:25;3.10;;;2.80;;
58992;SDS011;44782;0.000;0.000;2023-07-09T04:02:41;2.80;;;2.60;;
58992;SDS011;44782;0.000;0.000;2023-07-09T04:04:58;2.78;;;2.58;;
58992;SDS011;44782;0.000;0.000;2023-07-09T04:07:14;2.63;;;2.42;;
58992;SDS011;44782;0.000;0.000;2023-07-09T04:09:30;3.00;;;2.80;;
58992;SDS011;44782;0.000;0.000;2023-07-09T04:11:46;2.45;;;2.35;;
58992;SDS011;44782;0.000;0.000;2023-07-09T04:14:01;2.70;;;2.50;;
58992;SDS011;44782;0.000;0.000;2023-07-09T04:16:17;2.67;;;2.47;;
58992;SDS011;44782;0.000;0.000;2023-07-09T04:18:33;2.80;;;2.60;;
58992;SDS011;44782;0.000;0.000;2023-07-09T04:20:48;2.80;;;2.60;;
58992;SDS011;44782;0.000;0.000;2023-07-09T04:23:05;2.53;;;2.33;;
58992;SDS011;44782;0.000;0.000;2023-07-09T04:25:21;2.63;;;2.42;;
58992;SDS011;44782;0.000;0.000;2023-07-09T04:27:37;2.60;;;2.50;;
58992;SDS011;44782;0.000;0.000;2023-07-09T04:29:54;2.90;;;2.70;;
58992;SDS011;44782;0.000;0.000;2023-07-09T04:32:13;2.60;;;2.40;;
58992;SDS011;44782;0.000;0.000;2023-07-09T04:34:30;2.45;;;2.25;;
58992;SDS011;44782;0.000;0.000;2023-07-09T04:36:45;2.83;;;2.63;;
58992;SDS011;44782;0.000;0.000;2023-07-09T04:39:01;2.60;;;2.40;;
58992;SDS011;44782;0.000;0.000;2023-07-09T04:41:17;2.60;;;2.40;;
58992;SDS011;44782;0.000;0.000;2023-07-09T04:43:33;2.67;;;2.47;;
58992;SDS011;44782;0.000;0.000;2023-07-09T04:45:49;2.80;;;2.60;;
58992;SDS011;44782;0.000;0.000;2023-07-09T04:48:06;2.58;;;2.38;;
58992;SDS011;44782;0.000;0.000;2023-07-09T04:50:21;2.72;;;2.53;;
58992;SDS011;44782;0.000;0.000;2023-07-09T04:52:37;2.55;;;2.40;;
58992;SDS011;44782;0.000;0.000;2023-07-09T04:54:53;2.80;;;2.60;;
58992;SDS011;44782;0.000;0.000;2023-07-09T04:57:08;2.70;;;2.50;;
58992;SDS011;44782;0.000;0.000;2023-07-09T04:59:24;2.90;;;2.70;;
58992;SDS011;44782;0.000;0.000;2023-07-09T05:01:40;3.08;;;2.88;;
58992;SDS011;44782;0.000;0.000;2023-07-09T05:03:56;2.67;;;2.47;;
58992;SDS011;44782;0.000;0.000;2023-07-09T05:06:11;2.95;;;2.75;;
58992;SDS011;44782;0.000;0.000;2023-07-09T05:08:27;2.80;;;2.60;;
58992;SDS011;44782;0.000;0.000;2023-07-09T05:10:48;3.03;;;2.83;;
58992;SDS011;44782;0.000;0.000;2023-07-09T05:13:05;2.90;;;2.70;;
58992;SDS011;44782;0.000;0.000;2023-07-09T05:15:21;2.90;;;2.70;;
58992;SDS011;44782;0.000;0.000;2023-07-09T05:17:37;3.00;;;2.80;;
58992;SDS011;44782;0.000;0.000;2023-07-09T05:19:53;2.78;;;2.58;;
58992;SDS011;44782;0.000;0.000;2023-07-09T05:22:09;2.80;;;2.60;;
58992;SDS011;44782;0.000;0.000;2023-07-09T05:24:24;2.97;;;2.72;;
58992;SDS011;44782;0.000;0.000;2023-07-09T05:26:40;3.00;;;2.72;;
58992;SDS011;44782;0.000;0.000;2023-07-09T05:28:56;2.80;;;2.60;;
58992;SDS011;44782;0.000;0.000;2023-07-09T05:31:12;2.67;;;2.47;;
58992;SDS011;44782;0.000;0.000;2023-07-09T05:33:28;2.80;;;2.60;;
58992;SDS011;44782;0.000;0.000;2023-07-09T05:35:44;2.67;;;2.55;;
58992;SDS011;44782;0.000;0.000;2023-07-09T05:38:03;2.83;;;2.63;;
58992;SDS011;44782;0.000;0.000;2023-07-09T05:40:19;2.70;;;2.50;;
58992;SDS011;44782;0.000;0.000;2023-07-09T05:42:34;3.00;;;2.80;;
58992;SDS011;44782;0.000;0.000;2023-07-09T05:44:51;3.20;;;2.90;;
58992;SDS011;44782;0.000;0.000;2023-07-09T05:47:06;2.67;;;2.47;;
58992;SDS011;44782;0.000;0.000;2023-07-09T05:49:22;2.60;;;2.40;;
58992;SDS011;44782;0.000;0.000;2023-07-09T05:51:38;2.80;;;2.60;;
58992;SDS011;44782;0.000;0.000;2023-07-09T05:53:54;2.80;;;2.60;;
58992;SDS011;44782;0.000;0.000;2023-07-09T05:56:09;2.67;;;2.47;;
58992;SDS011;44782;0.000;0.000;2023-07-09T05:58:25;2.67;;;2.47;;
58992;SDS011;44782;0.000;0.000;2023-07-09T06:00:41;3.00;;;2.80;;
58992;SDS011;44782;0.000;0.000;2023-07-09T06:02:57;2.83;;;2.63;;
58992;SDS011;44782;0.000;0.000;2023-07-09T06:05:14;3.00;;;2.80;;
58992;SDS011;44782;0.000;0.000;2023-07-09T06:07:32;2.58;;;2.47;;
58992;SDS011;44782;0.000;0.000;2023-07-09T06:09:47;2.83;;;2.63;;
58992;SDS011;44782;0.000;0.000;2023-07-09T06:12:03;2.75;;;2.55;;
58992;SDS011;44782;0.000;0.000;2023-07-09T06:14:20;2.80;;;2.60;;
58992;SDS011;44782;0.000;0.000;2023-07-09T06:16:36;2.72;;;2.53;;
58992;SDS011;44782;0.000;0.000;2023-07-09T06:18:52;2.88;;;2.67;;
58992;SDS011;44782;0.000;0.000;2023-07-09T06:21:08;2.70;;;2.50;;
58992;SDS011;44782;0.000;0.000;2023-07-09T06:23:26;2.67;;;2.47;;
58992;SDS011;44782;0.000;0.000;2023-07-09T06:25:43;2.83;;;2.63;;
58992;SDS011;44782;0.000;0.000;2023-07-09T06:28:02;3.17;;;2.90;;
58992;SDS011;44782;0.000;0.000;2023-07-09T06:30:18;2.83;;;2.63;;
58992;SDS011;44782;0.000;0.000;2023-07-09T06:32:34;2.90;;;2.70;;
58992;SDS011;44782;0.000;0.000;2023-07-09T06:34:50;2.90;;;2.70;;
58992;SDS011;44782;0.000;0.000;2023-07-09T06:37:06;2.60;;;2.40;;
58992;SDS011;44782;0.000;0.000;2023-07-09T06:39:24;2.60;;;2.40;;
58992;SDS011;44782;0.000;0.000;2023-07-09T06:41:40;2.60;;;2.40;;
58992;SDS011;44782;0.000;0.000;2023-07-09T06:43:56;2.70;;;2.50;;
58992;SDS011;44782;0.000;0.000;2023-07-09T06:46:12;2.42;;;2.28;;
58992;SDS011;44782;0.000;0.000;2023-07-09T06:48:29;2.67;;;2.47;;
58992;SDS011;44782;0.000;0.000;2023-07-09T06:50:45;2.58;;;2.38;;
58992;SDS011;44782;0.000;0.000;2023-07-09T06:53:01;2.80;;;2.60;;
58992;SDS011;44782;0.000;0.000;2023-07-09T06:55:17;2.70;;;2.50;;
58992;SDS011;44782;0.000;0.000;2023-07-09T06:57:33;2.72;;;2.53;;
58992;SDS011;44782;0.000;0.000;2023-07-09T06:59:49;2.83;;;2.63;;
58992;SDS011;44782;0.000;0.000;2023-07-09T07:02:05;2.72;;;2.53;;
58992;SDS011;44782;0.000;0.000;2023-07-09T07:04:21;2.67;;;2.47;;
58992;SDS011;44782;0.000;0.000;2023-07-09T07:06:36;2.80;;;2.60;;
58992;SDS011;44782;0.000;0.000;2023-07-09T07:08:52;2.70;;;2.50;;
58992;SDS011;44782;0.000;0.000;2023-07-09T07:11:08;2.40;;;2.30;;
58992;SDS011;44782;0.000;0.000;2023-07-09T07:13:24;2.80;;;2.53;;
58992;SDS011;44782;0.000;0.000;2023-07-09T07:15:39;2.58;;;2.38;;
58992;SDS011;44782;0.000;0.000;2023-07-09T07:17:55;2.60;;;2.40;;
58992;SDS011;44782;0.000;0.000;2023-07-09T07:20:12;2.35;;;2.25;;
58992;SDS011;44782;0.000;0.000;2023-07-09T07:22:29;2.72;;;2.55;;
58992;SDS011;44782;0.000;0.000;2023-07-09T07:24:44;2.75;;;2.55;;
58992;SDS011;44782;0.000;0.000;2023-07-09T07:27:03;2.50;;;2.30;;
58992;SDS011;44782;0.000;0.000;2023-07-09T07:29:19;2.53;;;2.33;;
58992;SDS011;44782;0.000;0.000;2023-07-09T07:31:35;2.63;;;2.42;;
58992;SDS011;44782;0.000;0.000;2023-07-09T07:33:51;2.90;;;2.70;;
58992;SDS011;44782;0.000;0.000;2023-07-09T07:36:06;2.63;;;2.42;;
58992;SDS011;44782;0.000;0.000;2023-07-09T07:38:23;3.00;;;2.80;;
58992;SDS011;44782;0.000;0.000;2023-07-09T07:40:38;2.70;;;2.50;;
58992;SDS011;44782;0.000;0.000;2023-07-09T07:42:58;2.70;;;2.50;;
58992;SDS011;44782;0.000;0.000;2023-07-09T07:45:14;2.75;;;2.55;;
58992;SDS011;44782;0.000;0.000;2023-07-09T07:47:30;3.17;;;2.97;;
58992;SDS011;44782;0.000;0.000;2023-07-09T07:49:46;3.45;;;3.15;;
58992;SDS011;44782;0.000;0.000;2023-07-09T07:52:02;3.03;;;2.83;;
58992;SDS011;44782;0.000;0.000;2023-07-09T07:54:18;3.50;;;3.20;;
58992;SDS011;44782;0.000;0.000;2023-07-09T07:56:36;3.53;;;3.22;;
58992;SDS011;44782;0.000;0.000;2023-07-09T07:58:52;3.00;;;2.80;;
58992;SDS011;44782;0.000;0.000;2023-07-09T08:01:07;3.05;;;2.85;;
58992;SDS011;44782;0.000;0.000;2023-07-09T08:03:23;3.25;;;2.95;;
58992;SDS011;44782;0.000;0.000;2023-07-09T08:05:39;3.50;;;3.17;;
58992;SDS011;44782;0.000;0.000;2023-07-09T08:07:55;3.30;;;3.00;;
58992;SDS011;44782;0.000;0.000;2023-07-09T08:10:11;3.78;;;3.00;;
58992;SDS011;44782;0.000;0.000;2023-07-09T08:12:28;3.10;;;2.90;;
58992;SDS011;44782;0.000;0.000;2023-07-09T08:14:44;3.20;;;2.95;;
58992;SDS011;44782;0.000;0.000;2023-07-09T08:17:01;3.78;;;2.83;;
58992;SDS011;44782;0.000;0.000;2023-07-09T08:19:18;3.17;;;2.97;;
58992;SDS011;44782;0.000;0.000;2023-07-09T08:21:34;3.38;;;3.08;;
58992;SDS011;44782;0.000;0.000;2023-07-09T08:23:50;3.20;;;2.90;;
58992;SDS011;44782;0.000;0.000;2023-07-09T08:26:05;3.53;;;3.20;;
58992;SDS011;44782;0.000;0.000;2023-07-09T08:28:21;3.25;;;2.95;;
58992;SDS011;44782;0.000;0.000;2023-07-09T08:30:37;3.40;;;3.10;;
58992;SDS011;44782;0.000;0.000;2023-07-09T08:32:53;3.05;;;2.85;;
58992;SDS011;44782;0.000;0.000;2023-07-09T08:35:10;4.13;;;3.00;;
58992;SDS011;44782;0.000;0.000;2023-07-09T08:37:27;3.45;;;3.13;;
58992;SDS011;44782;0.000;0.000;2023-07-09T08:39:42;3.40;;;3.10;;
58992;SDS011;44782;0.000;0.000;2023-07-09T08:41:59;3.45;;;3.15;;
58992;SDS011;44782;0.000;0.000;2023-07-09T08:47:15;4.05;;;3.30;;
58992;SDS011;44782;0.000;0.000;2023-07-09T08:49:47;3.17;;;2.92;;
58992;SDS011;44782;0.000;0.000;2023-07-09T08:52:54;3.40;;;3.10;;
58992;SDS011;44782;0.000;0.000;2023-07-09T08:54:51;4.00;;;3.40;;
58992;SDS011;44782;0.000;0.000;2023-07-09T08:57:43;3.28;;;2.97;;
58992;SDS011;44782;0.000;0.000;2023-07-09T09:00:13;3.10;;;2.80;;
58992;SDS011;44782;0.000;0.000;2023-07-09T09:02:33;3.10;;;2.65;;
58992;SDS011;44782;0.000;0.000;2023-07-09T09:04:52;4.07;;;3.20;;
58992;SDS011;44782;0.000;0.000;2023-07-09T09:09:45;4.55;;;3.03;;
58992;SDS011;44782;0.000;0.000;2023-07-09T09:12:20;3.13;;;2.92;;
58992;SDS011;44782;0.000;0.000;2023-07-09T09:14:41;3.20;;;2.90;;
58992;SDS011;44782;0.000;0.000;2023-07-09T09:16:59;3.10;;;2.88;;
58992;SDS011;44782;0.000;0.000;2023-07-09T09:19:27;3.17;;;2.75;;
58992;SDS011;44782;0.000;0.000;2023-07-09T09:21:43;3.30;;;3.00;;
58992;SDS011;44782;0.000;0.000;2023-07-09T09:24:19;3.30;;;3.00;;
58992;SDS011;44782;0.000;0.000;2023-07-09T09:26:46;2.88;;;2.67;;
58992;SDS011;44782;0.000;0.000;2023-07-09T09:29:11;2.85;;;2.65;;
58992;SDS011;44782;0.000;0.000;2023-07-09T09:31:30;2.97;;;2.78;;
58992;SDS011;44782;0.000;0.000;2023-07-09T09:33:46;3.22;;;2.97;;
58992;SDS011;44782;0.000;0.000;2023-07-09T09:36:03;3.00;;;2.70;;
58992;SDS011;44782;0.000;0.000;2023-07-09T09:38:21;2.85;;;2.65;;
58992;SDS011;44782;0.000;0.000;2023-07-09T09:40:37;3.10;;;2.80;;
58992;SDS011;44782;0.000;0.000;2023-07-09T09:42:55;3.00;;;2.80;;
58992;SDS011;44782;0.000;0.000;2023-07-09T09:45:13;3.33;;;2.97;;
58992;SDS011;44782;0.000;0.000;2023-07-09T09:47:35;3.25;;;2.95;;
58992;SDS011;44782;0.000;0.000;2023-07-09T09:49:51;2.95;;;2.75;;
58992;SDS011;44782;0.000;0.000;2023-07-09T09:52:14;3.25;;;2.95;;
58992;SDS011;44782;0.000;0.000;2023-07-09T09:54:33;3.20;;;2.90;;
58992;SDS011;44782;0.000;0.000;2023-07-09T09:56:50;2.90;;;2.65;;
58992;SDS011;44782;0.000;0.000;2023-07-09T09:59:13;3.30;;;3.00;;
58992;SDS011;44782;0.000;0.000;2023-07-09T10:01:34;2.67;;;2.50;;
58992;SDS011;44782;0.000;0.000;2023-07-09T10:03:50;2.90;;;2.70;;
58992;SDS011;44782;0.000;0.000;2023-07-09T10:06:12;3.17;;;2.90;;
58992;SDS011;44782;0.000;0.000;2023-07-09T10:14:01;2.83;;;2.53;;
58992;SDS011;44782;0.000;0.000;2023-07-09T10:16:41;2.70;;;2.50;;
58992;SDS011;44782;0.000;0.000;2023-07-09T10:19:12;3.10;;;2.80;;
58992;SDS011;44782;0.000;0.000;2023-07-09T10:21:37;2.90;;;2.70;;
58992;SDS011;44782;0.000;0.000;2023-07-09T10:24:25;2.92;;;2.72;;
58992;SDS011;44782;0.000;0.000;2023-07-09T10:26:46;2.97;;;2.78;;
58992;SDS011;44782;0.000;0.000;2023-07-09T10:39:56;2.72;;;2.53;;
58992;SDS011;44782;0.000;0.000;2023-07-09T10:42:24;2.53;;;2.33;;
58992;SDS011;44782;0.000;0.000;2023-07-09T10:44:41;2.70;;;2.50;;
58992;SDS011;44782;0.000;0.000;2023-07-09T10:46:59;2.88;;;2.67;;
58992;SDS011;44782;0.000;0.000;2023-07-09T10:49:19;2.60;;;2.40;;
58992;SDS011;44782;0.000;0.000;2023-07-09T10:51:38;2.70;;;2.50;;
58992;SDS011;44782;0.000;0.000;2023-07-09T10:56:28;3.10;;;2.80;;
58992;SDS011;44782;0.000;0.000;2023-07-09T10:58:53;2.63;;;2.42;;
58992;SDS011;44782;0.000;0.000;2023-07-09T11:01:31;2.60;;;2.40;;
58992;SDS011;44782;0.000;0.000;2023-07-09T11:03:54;2.60;;;2.40;;
58992;SDS011;44782;0.000;0.000;2023-07-09T11:06:34;2.47;;;2.28;;
58992;SDS011;44782;0.000;0.000;2023-07-09T11:08:56;2.55;;;2.35;;
58992;SDS011;44782;0.000;0.000;2023-07-09T11:11:20;2.85;;;2.65;;
58992;SDS011;44782;0.000;0.000;2023-07-09T11:13:50;2.83;;;2.63;;
58992;SDS011;44782;0.000;0.000;2023-07-09T11:16:19;2.50;;;2.30;;
58992;SDS011;44782;0.000;0.000;2023-07-09T11:18:40;2.58;;;2.38;;
58992;SDS011;44782;0.000;0.000;2023-07-09T11:21:00;2.75;;;2.55;;
58992;SDS011;44782;0.000;0.000;2023-07-09T11:23:22;2.80;;;2.60;;
58992;SDS011;44782;0.000;0.000;2023-07-09T11:25:46;2.47;;;2.38;;
58992;SDS011;44782;0.000;0.000;2023-07-09T11:28:04;2.42;;;2.22;;
58992;SDS011;44782;0.000;0.000;2023-07-09T11:30:25;2.80;;;2.60;;
58992;SDS011;44782;0.000;0.000;2023-07-09T11:32:46;2.67;;;2.47;;
58992;SDS011;44782;0.000;0.000;2023-07-09T11:35:07;2.92;;;2.72;;
58992;SDS011;44782;0.000;0.000;2023-07-09T11:37:25;2.70;;;2.50;;
58992;SDS011;44782;0.000;0.000;2023-07-09T11:41:58;2.65;;;2.45;;
58992;SDS011;44782;0.000;0.000;2023-07-09T11:44:21;2.97;;;2.42;;
58992;SDS011;44782;0.000;0.000;2023-07-09T11:49:18;2.25;;;2.15;;
58992;SDS011;44782;0.000;0.000;2023-07-09T11:51:44;3.03;;;2.67;;
58992;SDS011;44782;0.000;0.000;2023-07-09T11:54:04;2.67;;;2.45;;
58992;SDS011;44782;0.000;0.000;2023-07-09T11:56:21;2.38;;;2.28;;
58992;SDS011;44782;0.000;0.000;2023-07-09T11:58:52;2.38;;;2.28;;
58992;SDS011;44782;0.000;0.000;2023-07-09T12:01:13;2.63;;;2.42;;
58992;SDS011;44782;0.000;0.000;2023-07-09T12:03:32;2.50;;;2.30;;
58992;SDS011;44782;0.000;0.000;2023-07-09T12:05:51;2.63;;;2.42;;
58992;SDS011;44782;0.000;0.000;2023-07-09T12:08:10;2.60;;;2.40;;
58992;SDS011;44782;0.000;0.000;2023-07-09T12:10:32;2.50;;;2.30;;
58992;SDS011;44782;0.000;0.000;2023-07-09T12:12:53;2.60;;;2.40;;
58992;SDS011;44782;0.000;0.000;2023-07-09T12:15:17;2.95;;;2.50;;
58992;SDS011;44782;0.000;0.000;2023-07-09T12:17:35;2.78;;;2.58;;
58992;SDS011;44782;0.000;0.000;2023-07-09T12:19:51;2.80;;;2.60;;
58992;SDS011;44782;0.000;0.000;2023-07-09T12:22:15;2.40;;;2.20;;
58992;SDS011;44782;0.000;0.000;2023-07-09T12:24:39;2.63;;;2.42;;
58992;SDS011;44782;0.000;0.000;2023-07-09T12:27:00;2.83;;;2.63;;
58992;SDS011;44782;0.000;0.000;2023-07-09T12:29:17;2.45;;;2.25;;
58992;SDS011;44782;0.000;0.000;2023-07-09T12:31:33;2.40;;;2.30;;
58992;SDS011;44782;0.000;0.000;2023-07-09T12:33:49;2.40;;;2.20;;
58992;SDS011;44782;0.000;0.000;2023-07-09T12:36:09;2.70;;;2.50;;
58992;SDS011;44782;0.000;0.000;2023-07-09T12:38:27;2.53;;;2.33;;
58992;SDS011;44782;0.000;0.000;2023-07-09T12:40:45;2.38;;;2.28;;
58992;SDS011;44782;0.000;0.000;2023-07-09T12:43:01;3.55;;;2.50;;
58992;SDS011;44782;0.000;0.000;2023-07-09T12:45:19;2.70;;;2.45;;
58992;SDS011;44782;0.000;0.000;2023-07-09T12:47:36;2.50;;;2.35;;
58992;SDS011;44782;0.000;0.000;2023-07-09T12:49:52;2.45;;;2.25;;
58992;SDS011;44782;0.000;0.000;2023-07-09T12:52:18;2.45;;;2.25;;
58992;SDS011;44782;0.000;0.000;2023-07-09T12:54:57;2.35;;;2.15;;
58992;SDS011;44782;0.000;0.000;2023-07-09T12:57:14;2.40;;;2.20;;
58992;SDS011;44782;0.000;0.000;2023-07-09T12:59:38;2.63;;;2.42;;
58992;SDS011;44782;0.000;0.000;2023-07-09T13:02:00;2.10;;;1.90;;
58992;SDS011;44782;0.000;0.000;2023-07-09T13:04:19;3.00;;;2.22;;
58992;SDS011;44782;0.000;0.000;2023-07-09T13:06:35;2.30;;;2.10;;
58992;SDS011;44782;0.000;0.000;2023-07-09T13:08:54;2.45;;;2.25;;
58992;SDS011;44782;0.000;0.000;2023-07-09T13:11:16;2.20;;;2.10;;
58992;SDS011;44782;0.000;0.000;2023-07-09T13:13:33;2.17;;;1.98;;
58992;SDS011;44782;0.000;0.000;2023-07-09T13:18:12;2.03;;;1.92;;
58992;SDS011;44782;0.000;0.000;2023-07-09T13:20:29;2.47;;;2.28;;
58992;SDS011;44782;0.000;0.000;2023-07-09T13:22:47;2.10;;;2.00;;
58992;SDS011;44782;0.000;0.000;2023-07-09T13:25:04;2.47;;;2.20;;
58992;SDS011;44782;0.000;0.000;2023-07-09T13:27:21;2.40;;;2.20;;
58992;SDS011;44782;0.000;0.000;2023-07-09T13:29:36;2.30;;;2.10;;
58992;SDS011;44782;0.000;0.000;2023-07-09T13:31:54;2.47;;;2.28;;
58992;SDS011;44782;0.000;0.000;2023-07-09T13:34:17;2.45;;;2.25;;
58992;SDS011;44782;0.000;0.000;2023-07-09T13:36:34;2.10;;;2.00;;
58992;SDS011;44782;0.000;0.000;2023-07-09T13:38:53;2.13;;;2.03;;
58992;SDS011;44782;0.000;0.000;2023-07-09T13:41:12;2.00;;;1.90;;
58992;SDS011;44782;0.000;0.000;2023-07-09T13:43:31;2.25;;;2.05;;
58992;SDS011;44782;0.000;0.000;2023-07-09T13:45:49;2.20;;;2.05;;
58992;SDS011;44782;0.000;0.000;2023-07-09T13:48:07;2.20;;;1.98;;
58992;SDS011;44782;0.000;0.000;2023-07-09T13:50:31;2.35;;;2.15;;
58992;SDS011;44782;0.000;0.000;2023-07-09T13:52:47;2.15;;;1.98;;
58992;SDS011;44782;0.000;0.000;2023-07-09T13:55:03;2.25;;;2.03;;
58992;SDS011;44782;0.000;0.000;2023-07-09T13:57:20;2.13;;;2.03;;
58992;SDS011;44782;0.000;0.000;2023-07-09T13:59:36;2.03;;;1.92;;
58992;SDS011;44782;0.000;0.000;2023-07-09T14:01:54;2.03;;;1.90;;
58992;SDS011;44782;0.000;0.000;2023-07-09T14:04:12;1.90;;;1.80;;
58992;SDS011;44782;0.000;0.000;2023-07-09T14:06:29;2.22;;;2.05;;
58992;SDS011;44782;0.000;0.000;2023-07-09T14:08:44;1.92;;;1.83;;
58992;SDS011;44782;0.000;0.000;2023-07-09T14:11:00;2.30;;;2.10;;
58992;SDS011;44782;0.000;0.000;2023-07-09T14:13:18;2.20;;;2.10;;
58992;SDS011;44782;0.000;0.000;2023-07-09T14:15:36;1.98;;;1.88;;
58992;SDS011;44782;0.000;0.000;2023-07-09T14:17:51;2.20;;;2.00;;
58992;SDS011;44782;0.000;0.000;2023-07-09T14:20:10;2.22;;;2.05;;
58992;SDS011;44782;0.000;0.000;2023-07-09T14:22:33;2.10;;;2.00;;
58992;SDS011;44782;0.000;0.000;2023-07-09T14:24:50;2.10;;;2.00;;
58992;SDS011;44782;0.000;0.000;2023-07-09T14:27:07;2.08;;;1.98;;
58992;SDS011;44782;0.000;0.000;2023-07-09T14:29:24;2.10;;;2.00;;
58992;SDS011;44782;0.000;0.000;2023-07-09T14:31:41;1.77;;;1.67;;
58992;SDS011;44782;0.000;0.000;2023-07-09T14:34:01;2.22;;;2.08;;
58992;SDS011;44782;0.000;0.000;2023-07-09T14:36:35;2.00;;;1.90;;
58992;SDS011;44782;0.000;0.000;2023-07-09T14:38:50;1.90;;;1.80;;
58992;SDS011;44782;0.000;0.000;2023-07-09T14:41:15;1.98;;;1.88;;
58992;SDS011;44782;0.000;0.000;2023-07-09T14:43:36;1.90;;;1.80;;